Lluvia Desde: 18-10-2018 00:00 Hasta: 14:59 Aviso por: Lluvia Nivel: Amarillo info button
 

Informes METAR

 

LEZL - Sevilla, Spain
Distancia de la estación: ENE 8km
Actualización: 18/10/2018 01:30
Despejado
Despejado
 Viento de S
Viento: S 11 km/h
Temperatura: 18°C
Rocío: 16°C
Humedad: 88%
Barómetro: 1011 hPa
Resumen: Despejado
Visibilidad: mayor de 10 km
2018/10/17 23:30 LEZL 172330Z AUTO 19006KT CAVOK 18/16 Q1011
LEMO - Morón, Spain
Distancia de la estación: SE 43km
Actualización: 18/10/2018 01:00
Despejado
Despejado
 Viento de S
Viento: S 13 km/h
Temperatura: 18°C
Rocío: 15°C
Humedad: 83%
Barómetro: 1012 hPa
Resumen: Despejado
Visibilidad: mayor de 10 km
2018/10/17 23:00 LEMO 172300Z 18007KT CAVOK 18/15 Q1012 NOSIG
LEJR - Jeréz, Spain
Distancia de la estación: S 71km
Actualización: 18/10/2018 01:30
Muy nuboso
Muy nuboso
 Viento de S
Viento: S 6 km/h
Temperatura: 16°C
Rocío: 16°C
Humedad: 100%
Barómetro: 1012 hPa
Nubes: Muy nuboso
Visibilidad: 10 km
Detalles de las nubes: Muy nuboso 640 m
2018/10/17 23:30 LEJR 172330Z AUTO 18003KT 9999 BKN021/// 16/16 Q1012
 
LERT - Rota, Spain
Distancia de la estación: SSO 89km
Actualización: 18/10/2018 01:00
Muy nuboso
Muy nuboso
 Viento de SO
Viento: SO 13 km/h
Temperatura: 20°C
Rocío: 16°C
Humedad: 78%
Barómetro: 1012 hPa
Nubes: Muy nuboso
Visibilidad: 10 km
Detalles de las nubes: Parcialmente nuboso 610 m
Muy nuboso 1036 m
2018/10/17 23:00 LERT 172300Z 23007KT 190V260 9999 SCT020 BKN034 20/16 Q1012 TEMPO 4000 SHRA SCT025CB
LEMG - Málaga, Spain
Distancia de la estación: ESE 157km
Actualización: 18/10/2018 01:30
Parcialmente nuboso
Parcialmente nuboso
 Viento de NO
Viento: NO 6 km/h
Temperatura: 19°C
Rocío: 16°C
Humedad: 83%
Barómetro: 1012 hPa
Nubes: Parcialmente nuboso
Visibilidad: 10 km
Detalles de las nubes: Poco nuboso 610 m
Parcialmente nuboso 2438 m
2018/10/17 23:30 LEMG 172330Z 32003KT 9999 FEW020 SCT080 19/16 Q1012 NOSIG
LEBA - Córdoba, Spain
Distancia de la estación: ENE 115km
Actualización: 18/10/2018 01:30
Despejado
Despejado
 Viento de OSO
Viento: OSO 7 km/h
Temperatura: 18°C
Rocío: 15°C
Humedad: 83%
Barómetro: 1012 hPa
Resumen: Despejado
Visibilidad: mayor de 10 km
2018/10/17 23:30 LEBA 172330Z AUTO 24004KT 200V280 CAVOK 18/15 Q1012
 
LEGR - Granada, Spain
Distancia de la estación: E 198km
Actualización: 18/10/2018 01:30
Parcialmente nuboso
Parcialmente nuboso
 Viento de S
Viento: S 2 km/h
Temperatura: 13°C
Rocío: 12°C
Humedad: 94%
Barómetro: 1014 hPa
Nubes: Parcialmente nuboso
Visibilidad: 10 km
Detalles de las nubes: Parcialmente nuboso 2682 m
2018/10/17 23:30 LEGR 172330Z AUTO 19001KT 9999 SCT088 13/12 Q1014
LEAM - Almería, Spain
Distancia de la estación: E 326km
Actualización: 18/10/2018 01:30
Despejado
Despejado
 Viento de NO
Viento: NO 4 km/h
Temperatura: 18°C
Rocío: 16°C
Humedad: 88%
Barómetro: 1012 hPa
Nubes: Despejado
Visibilidad: 9 km
2018/10/17 23:30 LEAM 172330Z AUTO 32002KT 9000 NCD 18/16 Q1012
LEMD - Madrid/Barajas, Spain
Distancia de la estación: NNE 402km
Actualización: 18/10/2018 01:30
Poco nuboso
Poco nuboso
 Viento de SE
Viento: SE 6 km/h
Temperatura: 13°C
Rocío: 9°C
Humedad: 77%
Barómetro: 1013 hPa
Nubes: Poco nuboso
Visibilidad: 10 km
Detalles de las nubes: Poco nuboso 1524 m
2018/10/17 23:30 LEMD 172330Z 13003KT 100V160 9999 FEW050 13/09 Q1013 NOSIG
 
LEVD - Valladolid, Spain
Distancia de la estación: N 492km
Actualización: 17/10/2018 21:30
NOT Current
Despejado
Despejado
 Viento de N
Viento: N 11 km/h
Temperatura: 13°C
Rocío: 7°C
Humedad: 67%
Barómetro: 1014 hPa
Resumen: Despejado
Visibilidad: mayor de 10 km
2018/10/17 19:30 LEVD 171930Z 01006KT CAVOK 13/07 Q1014
LEBL - Barcelona, Spain
Distancia de la estación: NE 816km
Actualización: 18/10/2018 01:30
Despejado
Despejado
 Viento de NNO
Viento: NNO 6 km/h
Temperatura: 18°C
Rocío: 16°C
Humedad: 88%
Barómetro: 1013 hPa
Resumen: Despejado
Visibilidad: mayor de 10 km
2018/10/17 23:30 LEBL 172330Z 33003KT CAVOK 18/16 Q1013 NOSIG
LEVC - Valencia, Spain
Distancia de la estación: ENE 535km
Actualización: 18/10/2018 01:30
Poco nuboso
Poco nuboso
 Viento de O
Viento: O 4 km/h
Temperatura: 16°C
Rocío: 14°C
Humedad: 88%
Barómetro: 1013 hPa
Nubes: Poco nuboso
Visibilidad: 10 km
Detalles de las nubes: Poco nuboso 762 m
2018/10/17 23:30 LEVC 172330Z 27002KT 9999 FEW025 16/14 Q1013 NOSIG